Hideaway — WDF4476 — position and weather

sailwx.info

Track history (hours):
 
Tides and Currents Weather Stations Pressure Air Temp Water Temp Dewpoint Dewpoint Depression Visibility Wind Speed Wind Dir Waves Ship Positions

Hideaway

Owner: Karpas, Alan I, Bethesda, MD. More information available from US FCC via Universal Licensing System and Coast Guard Vessel Documentation Center.

Last reported at 2018-May-28 15:08 UTC. Time now 2018-Jun-22 13:23 UTC.
Position N 38°55' W 076°25'.
Warning: this ship's position is 24 days out of date.

Length 17 m.

Type: Sailing vessel. MMSI: 367452360.

Date/timePositionNaut miles runAvg speedWind from/ knotsBaromVisibWave heightAir tempDewpointWater temp
2018-May-28 15:08N 38°55' W 076°25'1 6.4
2018-May-28 14:59N 38°54' W 076°26'3 6.1
2018-May-28 14:30N 38°55' W 076°29'1 1.8
2018-May-28 13:59N 38°54' W 076°30'0 0.0
2018-May-27 15:47N 38°54' W 076°30'0 0.0
2018-May-27 15:29N 38°54' W 076°30'0 0.0
2018-May-27 14:59N 38°54' W 076°30'1 2.4
2018-May-27 14:30N 38°54' W 076°29'3 0.2
2018-May-26 17:40N 38°51' W 076°31'1 7.3
2018-May-26 17:29N 38°52' W 076°30'3 6.6
2018-May-26 17:00N 38°54' W 076°26'  
2018-May-23 13:06N 38°59' W 076°28'1 7.0
2018-May-23 13:00N 38°58' W 076°28'  
Track history (hours):
 
Tides and Currents Weather Stations Pressure Air Temp Water Temp Dewpoint Dewpoint Depression Visibility Wind Speed Wind Dir Waves Ship Positions

Hideaway

Owner: Karpas, Alan I, Bethesda, MD. More information available from US FCC via Universal Licensing System and Coast Guard Vessel Documentation Center.

Last reported at 2018-May-28 15:08 UTC. Time now 2018-Jun-22 13:23 UTC.
Position N 38°55' W 076°25'.
Warning: this ship's position is 24 days out of date.

Length 17 m.

Type: Sailing vessel. MMSI: 367452360.

Date/timePositionNaut miles runAvg speedWind from/ knotsBaromVisibWave heightAir tempDewpointWater temp
2018-May-28 15:08N 38°55' W 076°25'1 6.4
2018-May-28 14:59N 38°54' W 076°26'3 6.1
2018-May-28 14:30N 38°55' W 076°29'1 1.8
2018-May-28 13:59N 38°54' W 076°30'0 0.0
2018-May-27 15:47N 38°54' W 076°30'0 0.0
2018-May-27 15:29N 38°54' W 076°30'0 0.0
2018-May-27 14:59N 38°54' W 076°30'1 2.4
2018-May-27 14:30N 38°54' W 076°29'3 0.2
2018-May-26 17:40N 38°51' W 076°31'1 7.3
2018-May-26 17:29N 38°52' W 076°30'3 6.6
2018-May-26 17:00N 38°54' W 076°26'  
2018-May-23 13:06N 38°59' W 076°28'1 7.0
2018-May-23 13:00N 38°58' W 076°28'  

Dump ship's entire track history